sensor_id;sensor_type;location;lat;lon;timestamp;P1;durP1;ratioP1;P2;durP2;ratioP2
49824;SDS011;35714;55.708;37.478;2023-04-28T00:02:16;9.13;;;5.35;;
49824;SDS011;35714;55.708;37.478;2023-04-28T00:04:42;8.95;;;5.07;;
49824;SDS011;35714;55.708;37.478;2023-04-28T00:07:08;9.27;;;5.07;;
49824;SDS011;35714;55.708;37.478;2023-04-28T00:09:34;9.73;;;5.65;;
49824;SDS011;35714;55.708;37.478;2023-04-28T00:12:00;14.13;;;6.47;;
49824;SDS011;35714;55.708;37.478;2023-04-28T00:14:27;8.30;;;4.90;;
49824;SDS011;35714;55.708;37.478;2023-04-28T00:16:53;6.75;;;4.75;;
49824;SDS011;35714;55.708;37.478;2023-04-28T00:19:21;8.25;;;4.10;;
49824;SDS011;35714;55.708;37.478;2023-04-28T00:21:47;10.50;;;4.70;;
49824;SDS011;35714;55.708;37.478;2023-04-28T00:24:12;7.93;;;4.40;;
49824;SDS011;35714;55.708;37.478;2023-04-28T00:26:38;11.13;;;5.53;;
49824;SDS011;35714;55.708;37.478;2023-04-28T00:29:04;10.80;;;4.90;;
49824;SDS011;35714;55.708;37.478;2023-04-28T00:31:30;7.50;;;4.45;;
49824;SDS011;35714;55.708;37.478;2023-04-28T00:33:55;8.43;;;4.80;;
49824;SDS011;35714;55.708;37.478;2023-04-28T00:36:21;7.88;;;4.95;;
49824;SDS011;35714;55.708;37.478;2023-04-28T00:38:47;6.18;;;4.03;;
49824;SDS011;35714;55.708;37.478;2023-04-28T00:41:12;11.25;;;5.07;;
49824;SDS011;35714;55.708;37.478;2023-04-28T00:43:43;7.28;;;4.55;;
49824;SDS011;35714;55.708;37.478;2023-04-28T00:46:12;11.75;;;5.00;;
49824;SDS011;35714;55.708;37.478;2023-04-28T00:48:46;7.88;;;4.90;;
49824;SDS011;35714;55.708;37.478;2023-04-28T00:51:13;8.18;;;5.20;;
49824;SDS011;35714;55.708;37.478;2023-04-28T00:53:40;9.32;;;4.90;;
49824;SDS011;35714;55.708;37.478;2023-04-28T00:56:06;9.40;;;5.07;;
49824;SDS011;35714;55.708;37.478;2023-04-28T00:58:32;9.10;;;4.55;;
49824;SDS011;35714;55.708;37.478;2023-04-28T01:01:05;8.77;;;4.82;;
49824;SDS011;35714;55.708;37.478;2023-04-28T01:03:33;11.02;;;4.85;;
49824;SDS011;35714;55.708;37.478;2023-04-28T01:06:05;7.88;;;4.70;;
49824;SDS011;35714;55.708;37.478;2023-04-28T01:08:33;12.02;;;4.97;;
49824;SDS011;35714;55.708;37.478;2023-04-28T01:11:01;8.23;;;5.28;;
49824;SDS011;35714;55.708;37.478;2023-04-28T01:13:47;9.95;;;5.15;;
49824;SDS011;35714;55.708;37.478;2023-04-28T01:16:13;7.50;;;5.20;;
49824;SDS011;35714;55.708;37.478;2023-04-28T01:18:41;11.98;;;5.25;;
49824;SDS011;35714;55.708;37.478;2023-04-28T01:21:12;8.07;;;5.18;;
49824;SDS011;35714;55.708;37.478;2023-04-28T01:23:38;9.23;;;4.72;;
49824;SDS011;35714;55.708;37.478;2023-04-28T01:26:03;8.80;;;5.22;;
49824;SDS011;35714;55.708;37.478;2023-04-28T01:28:29;6.97;;;4.60;;
49824;SDS011;35714;55.708;37.478;2023-04-28T01:30:56;9.25;;;5.43;;
49824;SDS011;35714;55.708;37.478;2023-04-28T01:33:22;7.95;;;5.30;;
49824;SDS011;35714;55.708;37.478;2023-04-28T01:35:48;8.23;;;4.95;;
49824;SDS011;35714;55.708;37.478;2023-04-28T01:38:15;10.82;;;5.72;;
49824;SDS011;35714;55.708;37.478;2023-04-28T01:40:43;8.10;;;5.13;;
49824;SDS011;35714;55.708;37.478;2023-04-28T01:43:08;10.60;;;4.40;;
49824;SDS011;35714;55.708;37.478;2023-04-28T01:45:34;7.90;;;4.97;;
49824;SDS011;35714;55.708;37.478;2023-04-28T01:48:00;10.10;;;5.32;;
49824;SDS011;35714;55.708;37.478;2023-04-28T01:50:25;7.75;;;5.07;;
49824;SDS011;35714;55.708;37.478;2023-04-28T01:52:51;9.23;;;4.70;;
49824;SDS011;35714;55.708;37.478;2023-04-28T01:55:16;11.73;;;5.25;;
49824;SDS011;35714;55.708;37.478;2023-04-28T01:57:42;11.15;;;5.22;;
49824;SDS011;35714;55.708;37.478;2023-04-28T02:00:08;7.63;;;5.18;;
49824;SDS011;35714;55.708;37.478;2023-04-28T02:02:36;6.13;;;4.30;;
49824;SDS011;35714;55.708;37.478;2023-04-28T02:05:02;8.60;;;5.10;;
49824;SDS011;35714;55.708;37.478;2023-04-28T02:07:29;9.52;;;5.00;;
49824;SDS011;35714;55.708;37.478;2023-04-28T02:09:55;7.38;;;4.45;;
49824;SDS011;35714;55.708;37.478;2023-04-28T02:12:21;8.10;;;4.50;;
49824;SDS011;35714;55.708;37.478;2023-04-28T02:14:47;9.50;;;4.70;;
49824;SDS011;35714;55.708;37.478;2023-04-28T02:17:12;7.75;;;4.78;;
49824;SDS011;35714;55.708;37.478;2023-04-28T02:19:38;9.05;;;5.13;;
49824;SDS011;35714;55.708;37.478;2023-04-28T02:22:04;15.05;;;5.40;;
49824;SDS011;35714;55.708;37.478;2023-04-28T02:24:33;8.30;;;4.40;;
49824;SDS011;35714;55.708;37.478;2023-04-28T02:27:00;10.02;;;5.18;;
49824;SDS011;35714;55.708;37.478;2023-04-28T02:29:27;6.90;;;4.50;;
49824;SDS011;35714;55.708;37.478;2023-04-28T02:31:52;7.72;;;4.93;;
49824;SDS011;35714;55.708;37.478;2023-04-28T02:34:18;9.40;;;4.70;;
49824;SDS011;35714;55.708;37.478;2023-04-28T02:36:44;9.50;;;4.47;;
49824;SDS011;35714;55.708;37.478;2023-04-28T02:39:09;8.38;;;5.53;;
49824;SDS011;35714;55.708;37.478;2023-04-28T02:41:35;8.63;;;5.18;;
49824;SDS011;35714;55.708;37.478;2023-04-28T02:44:01;6.20;;;4.18;;
49824;SDS011;35714;55.708;37.478;2023-04-28T02:46:27;9.07;;;4.80;;
49824;SDS011;35714;55.708;37.478;2023-04-28T02:48:52;10.50;;;5.00;;
49824;SDS011;35714;55.708;37.478;2023-04-28T02:51:18;7.57;;;4.80;;
49824;SDS011;35714;55.708;37.478;2023-04-28T02:53:43;7.63;;;5.03;;
49824;SDS011;35714;55.708;37.478;2023-04-28T02:56:09;9.05;;;5.45;;
49824;SDS011;35714;55.708;37.478;2023-04-28T02:58:35;9.30;;;4.88;;
49824;SDS011;35714;55.708;37.478;2023-04-28T03:01:01;7.18;;;4.80;;
49824;SDS011;35714;55.708;37.478;2023-04-28T03:03:27;7.85;;;4.53;;
49824;SDS011;35714;55.708;37.478;2023-04-28T03:05:53;7.90;;;4.57;;
49824;SDS011;35714;55.708;37.478;2023-04-28T03:08:21;7.70;;;4.55;;
49824;SDS011;35714;55.708;37.478;2023-04-28T03:10:47;8.30;;;4.80;;
49824;SDS011;35714;55.708;37.478;2023-04-28T03:13:12;7.22;;;4.53;;
49824;SDS011;35714;55.708;37.478;2023-04-28T03:15:40;8.68;;;5.72;;
49824;SDS011;35714;55.708;37.478;2023-04-28T03:18:06;7.38;;;4.60;;
49824;SDS011;35714;55.708;37.478;2023-04-28T03:20:31;9.45;;;4.90;;
49824;SDS011;35714;55.708;37.478;2023-04-28T03:22:57;10.20;;;5.72;;
49824;SDS011;35714;55.708;37.478;2023-04-28T03:25:23;13.93;;;5.20;;
49824;SDS011;35714;55.708;37.478;2023-04-28T03:27:50;8.25;;;4.88;;
49824;SDS011;35714;55.708;37.478;2023-04-28T03:30:16;10.73;;;5.53;;
49824;SDS011;35714;55.708;37.478;2023-04-28T03:32:42;7.57;;;4.55;;
49824;SDS011;35714;55.708;37.478;2023-04-28T03:35:08;8.18;;;5.13;;
49824;SDS011;35714;55.708;37.478;2023-04-28T03:37:34;9.23;;;5.90;;
49824;SDS011;35714;55.708;37.478;2023-04-28T03:40:00;7.35;;;4.88;;
49824;SDS011;35714;55.708;37.478;2023-04-28T03:42:28;7.03;;;4.90;;
49824;SDS011;35714;55.708;37.478;2023-04-28T03:45:08;10.38;;;4.85;;
49824;SDS011;35714;55.708;37.478;2023-04-28T03:47:34;8.75;;;5.13;;
49824;SDS011;35714;55.708;37.478;2023-04-28T03:50:00;8.48;;;5.25;;
49824;SDS011;35714;55.708;37.478;2023-04-28T03:52:26;7.45;;;4.70;;
49824;SDS011;35714;55.708;37.478;2023-04-28T03:54:52;10.73;;;4.95;;
49824;SDS011;35714;55.708;37.478;2023-04-28T03:57:18;11.25;;;4.95;;
49824;SDS011;35714;55.708;37.478;2023-04-28T03:59:44;9.05;;;4.80;;
49824;SDS011;35714;55.708;37.478;2023-04-28T04:02:10;8.35;;;4.65;;
49824;SDS011;35714;55.708;37.478;2023-04-28T04:04:36;9.55;;;4.63;;
49824;SDS011;35714;55.708;37.478;2023-04-28T04:07:02;9.07;;;4.70;;
49824;SDS011;35714;55.708;37.478;2023-04-28T04:09:29;7.60;;;4.53;;
49824;SDS011;35714;55.708;37.478;2023-04-28T04:11:54;11.40;;;4.80;;
49824;SDS011;35714;55.708;37.478;2023-04-28T04:14:20;10.05;;;4.78;;
49824;SDS011;35714;55.708;37.478;2023-04-28T04:16:46;8.50;;;4.97;;
49824;SDS011;35714;55.708;37.478;2023-04-28T04:19:12;8.45;;;5.53;;
49824;SDS011;35714;55.708;37.478;2023-04-28T04:21:40;9.18;;;4.93;;
49824;SDS011;35714;55.708;37.478;2023-04-28T04:24:06;8.32;;;4.70;;
49824;SDS011;35714;55.708;37.478;2023-04-28T04:26:32;10.25;;;5.15;;
49824;SDS011;35714;55.708;37.478;2023-04-28T04:28:58;9.90;;;5.28;;
49824;SDS011;35714;55.708;37.478;2023-04-28T04:31:24;7.03;;;4.60;;
49824;SDS011;35714;55.708;37.478;2023-04-28T04:33:50;9.88;;;5.55;;
49824;SDS011;35714;55.708;37.478;2023-04-28T04:36:18;7.90;;;4.85;;
49824;SDS011;35714;55.708;37.478;2023-04-28T04:38:43;10.32;;;5.18;;
49824;SDS011;35714;55.708;37.478;2023-04-28T04:41:14;10.18;;;5.47;;
49824;SDS011;35714;55.708;37.478;2023-04-28T04:43:41;8.45;;;5.30;;
49824;SDS011;35714;55.708;37.478;2023-04-28T04:46:06;9.48;;;5.15;;
49824;SDS011;35714;55.708;37.478;2023-04-28T04:48:32;11.82;;;5.10;;
49824;SDS011;35714;55.708;37.478;2023-04-28T04:50:59;10.13;;;5.60;;
49824;SDS011;35714;55.708;37.478;2023-04-28T04:53:25;9.27;;;6.18;;
49824;SDS011;35714;55.708;37.478;2023-04-28T04:55:51;10.65;;;5.10;;
49824;SDS011;35714;55.708;37.478;2023-04-28T04:58:17;10.00;;;5.72;;
49824;SDS011;35714;55.708;37.478;2023-04-28T05:01:07;14.25;;;5.40;;
49824;SDS011;35714;55.708;37.478;2023-04-28T05:03:33;9.80;;;5.35;;
49824;SDS011;35714;55.708;37.478;2023-04-28T05:05:59;12.75;;;5.70;;
49824;SDS011;35714;55.708;37.478;2023-04-28T05:08:38;8.32;;;5.53;;
49824;SDS011;35714;55.708;37.478;2023-04-28T05:11:04;9.48;;;5.15;;
49824;SDS011;35714;55.708;37.478;2023-04-28T05:13:30;10.07;;;6.07;;
49824;SDS011;35714;55.708;37.478;2023-04-28T05:16:00;12.65;;;5.72;;
49824;SDS011;35714;55.708;37.478;2023-04-28T05:18:31;10.45;;;5.25;;
49824;SDS011;35714;55.708;37.478;2023-04-28T05:20:57;12.63;;;7.30;;
49824;SDS011;35714;55.708;37.478;2023-04-28T05:23:23;11.45;;;5.68;;
49824;SDS011;35714;55.708;37.478;2023-04-28T05:25:49;9.00;;;5.85;;
49824;SDS011;35714;55.708;37.478;2023-04-28T05:28:15;8.93;;;5.25;;
49824;SDS011;35714;55.708;37.478;2023-04-28T05:30:43;12.05;;;6.07;;
49824;SDS011;35714;55.708;37.478;2023-04-28T05:33:10;10.68;;;5.43;;
49824;SDS011;35714;55.708;37.478;2023-04-28T05:35:36;8.27;;;5.03;;
49824;SDS011;35714;55.708;37.478;2023-04-28T05:38:01;7.90;;;5.35;;
49824;SDS011;35714;55.708;37.478;2023-04-28T05:40:29;10.85;;;5.97;;
49824;SDS011;35714;55.708;37.478;2023-04-28T05:42:55;16.27;;;5.75;;
49824;SDS011;35714;55.708;37.478;2023-04-28T05:45:20;12.52;;;5.60;;
49824;SDS011;35714;55.708;37.478;2023-04-28T05:47:46;13.35;;;5.75;;
49824;SDS011;35714;55.708;37.478;2023-04-28T05:50:12;9.55;;;5.53;;
49824;SDS011;35714;55.708;37.478;2023-04-28T05:52:38;14.45;;;5.43;;
49824;SDS011;35714;55.708;37.478;2023-04-28T05:55:03;15.18;;;6.70;;
49824;SDS011;35714;55.708;37.478;2023-04-28T05:57:30;9.50;;;5.70;;
49824;SDS011;35714;55.708;37.478;2023-04-28T05:59:55;11.38;;;5.53;;
49824;SDS011;35714;55.708;37.478;2023-04-28T06:02:21;9.20;;;5.43;;
49824;SDS011;35714;55.708;37.478;2023-04-28T06:04:47;11.65;;;5.82;;
49824;SDS011;35714;55.708;37.478;2023-04-28T06:07:13;13.80;;;5.90;;
49824;SDS011;35714;55.708;37.478;2023-04-28T06:09:39;24.92;;;10.68;;
49824;SDS011;35714;55.708;37.478;2023-04-28T06:12:05;9.32;;;5.40;;
49824;SDS011;35714;55.708;37.478;2023-04-28T06:14:31;8.93;;;5.47;;
49824;SDS011;35714;55.708;37.478;2023-04-28T06:16:57;9.50;;;4.65;;
49824;SDS011;35714;55.708;37.478;2023-04-28T06:19:23;8.75;;;4.93;;
49824;SDS011;35714;55.708;37.478;2023-04-28T06:21:49;11.90;;;5.38;;
49824;SDS011;35714;55.708;37.478;2023-04-28T06:24:15;6.43;;;4.78;;
49824;SDS011;35714;55.708;37.478;2023-04-28T06:26:44;9.10;;;4.30;;
49824;SDS011;35714;55.708;37.478;2023-04-28T06:29:09;9.18;;;4.30;;
49824;SDS011;35714;55.708;37.478;2023-04-28T06:31:35;8.85;;;3.83;;
49824;SDS011;35714;55.708;37.478;2023-04-28T06:34:01;7.63;;;3.83;;
49824;SDS011;35714;55.708;37.478;2023-04-28T06:36:27;6.82;;;3.33;;
49824;SDS011;35714;55.708;37.478;2023-04-28T06:38:53;6.90;;;3.72;;
49824;SDS011;35714;55.708;37.478;2023-04-28T06:41:19;8.07;;;4.20;;
49824;SDS011;35714;55.708;37.478;2023-04-28T06:43:48;7.75;;;3.38;;
49824;SDS011;35714;55.708;37.478;2023-04-28T06:46:28;5.68;;;3.30;;
49824;SDS011;35714;55.708;37.478;2023-04-28T06:48:54;7.22;;;3.65;;
49824;SDS011;35714;55.708;37.478;2023-04-28T06:51:20;8.77;;;3.60;;
49824;SDS011;35714;55.708;37.478;2023-04-28T06:53:45;7.75;;;3.50;;
49824;SDS011;35714;55.708;37.478;2023-04-28T06:56:11;6.70;;;3.70;;
49824;SDS011;35714;55.708;37.478;2023-04-28T06:58:37;6.88;;;3.40;;
49824;SDS011;35714;55.708;37.478;2023-04-28T07:01:02;8.63;;;3.85;;
49824;SDS011;35714;55.708;37.478;2023-04-28T07:03:29;7.85;;;3.63;;
49824;SDS011;35714;55.708;37.478;2023-04-28T07:05:56;8.40;;;3.47;;
49824;SDS011;35714;55.708;37.478;2023-04-28T07:08:22;8.57;;;3.47;;
49824;SDS011;35714;55.708;37.478;2023-04-28T07:10:47;7.97;;;3.67;;
49824;SDS011;35714;55.708;37.478;2023-04-28T07:13:13;7.60;;;3.67;;
49824;SDS011;35714;55.708;37.478;2023-04-28T07:15:39;5.57;;;3.35;;
49824;SDS011;35714;55.708;37.478;2023-04-28T07:18:04;9.50;;;3.83;;
49824;SDS011;35714;55.708;37.478;2023-04-28T07:20:31;10.43;;;3.55;;
49824;SDS011;35714;55.708;37.478;2023-04-28T07:22:57;11.15;;;3.60;;
49824;SDS011;35714;55.708;37.478;2023-04-28T07:25:22;6.05;;;3.28;;
49824;SDS011;35714;55.708;37.478;2023-04-28T07:27:48;7.38;;;3.58;;
49824;SDS011;35714;55.708;37.478;2023-04-28T07:30:14;8.30;;;3.35;;
49824;SDS011;35714;55.708;37.478;2023-04-28T07:32:40;7.60;;;4.38;;
49824;SDS011;35714;55.708;37.478;2023-04-28T07:35:06;5.43;;;3.22;;
49824;SDS011;35714;55.708;37.478;2023-04-28T07:37:32;8.38;;;3.53;;
49824;SDS011;35714;55.708;37.478;2023-04-28T07:39:58;7.70;;;3.60;;
49824;SDS011;35714;55.708;37.478;2023-04-28T07:42:23;6.15;;;3.55;;
49824;SDS011;35714;55.708;37.478;2023-04-28T07:44:49;7.00;;;3.85;;
49824;SDS011;35714;55.708;37.478;2023-04-28T07:47:15;6.47;;;3.47;;
49824;SDS011;35714;55.708;37.478;2023-04-28T07:49:40;7.30;;;4.00;;
49824;SDS011;35714;55.708;37.478;2023-04-28T07:52:06;6.80;;;4.20;;
49824;SDS011;35714;55.708;37.478;2023-04-28T07:54:32;7.53;;;4.35;;
49824;SDS011;35714;55.708;37.478;2023-04-28T07:56:57;5.93;;;3.28;;
49824;SDS011;35714;55.708;37.478;2023-04-28T07:59:23;8.85;;;4.20;;
49824;SDS011;35714;55.708;37.478;2023-04-28T08:01:49;7.57;;;4.45;;
49824;SDS011;35714;55.708;37.478;2023-04-28T08:04:14;7.97;;;4.22;;
49824;SDS011;35714;55.708;37.478;2023-04-28T08:06:40;9.23;;;4.40;;
49824;SDS011;35714;55.708;37.478;2023-04-28T08:09:06;8.45;;;4.35;;
49824;SDS011;35714;55.708;37.478;2023-04-28T08:11:31;7.90;;;4.32;;
49824;SDS011;35714;55.708;37.478;2023-04-28T08:13:58;7.00;;;4.50;;
49824;SDS011;35714;55.708;37.478;2023-04-28T08:16:27;12.27;;;5.13;;
49824;SDS011;35714;55.708;37.478;2023-04-28T08:18:54;6.75;;;4.47;;
49824;SDS011;35714;55.708;37.478;2023-04-28T08:21:20;7.13;;;4.43;;
49824;SDS011;35714;55.708;37.478;2023-04-28T08:23:45;8.35;;;4.88;;
49824;SDS011;35714;55.708;37.478;2023-04-28T08:26:11;8.82;;;5.18;;
49824;SDS011;35714;55.708;37.478;2023-04-28T08:28:37;9.38;;;5.10;;
49824;SDS011;35714;55.708;37.478;2023-04-28T08:31:03;9.25;;;6.22;;
49824;SDS011;35714;55.708;37.478;2023-04-28T08:33:29;8.75;;;5.15;;
49824;SDS011;35714;55.708;37.478;2023-04-28T08:35:55;9.20;;;5.22;;
49824;SDS011;35714;55.708;37.478;2023-04-28T08:38:21;8.93;;;5.80;;
49824;SDS011;35714;55.708;37.478;2023-04-28T08:40:48;10.35;;;5.88;;
49824;SDS011;35714;55.708;37.478;2023-04-28T08:43:14;9.82;;;5.60;;
49824;SDS011;35714;55.708;37.478;2023-04-28T08:45:40;8.27;;;5.72;;
49824;SDS011;35714;55.708;37.478;2023-04-28T08:48:20;8.50;;;5.43;;
49824;SDS011;35714;55.708;37.478;2023-04-28T08:50:51;9.27;;;6.07;;
49824;SDS011;35714;55.708;37.478;2023-04-28T08:53:24;8.45;;;5.53;;
49824;SDS011;35714;55.708;37.478;2023-04-28T08:55:54;9.32;;;6.60;;
49824;SDS011;35714;55.708;37.478;2023-04-28T08:58:22;9.18;;;6.43;;
49824;SDS011;35714;55.708;37.478;2023-04-28T09:00:49;9.27;;;5.88;;
49824;SDS011;35714;55.708;37.478;2023-04-28T09:03:15;8.90;;;6.90;;
49824;SDS011;35714;55.708;37.478;2023-04-28T09:05:41;10.18;;;6.90;;
49824;SDS011;35714;55.708;37.478;2023-04-28T09:08:07;10.77;;;6.68;;
49824;SDS011;35714;55.708;37.478;2023-04-28T09:10:33;11.10;;;6.43;;
49824;SDS011;35714;55.708;37.478;2023-04-28T09:12:58;7.97;;;5.93;;
49824;SDS011;35714;55.708;37.478;2023-04-28T09:15:34;9.20;;;6.60;;
49824;SDS011;35714;55.708;37.478;2023-04-28T09:18:01;8.60;;;5.95;;
49824;SDS011;35714;55.708;37.478;2023-04-28T09:20:29;10.15;;;6.03;;
49824;SDS011;35714;55.708;37.478;2023-04-28T09:23:11;8.25;;;5.40;;
49824;SDS011;35714;55.708;37.478;2023-04-28T09:28:34;10.90;;;5.22;;
49824;SDS011;35714;55.708;37.478;2023-04-28T09:31:01;8.63;;;5.25;;
49824;SDS011;35714;55.708;37.478;2023-04-28T09:33:27;6.70;;;5.20;;
49824;SDS011;35714;55.708;37.478;2023-04-28T09:35:53;7.65;;;5.35;;
49824;SDS011;35714;55.708;37.478;2023-04-28T09:38:19;10.02;;;5.32;;
49824;SDS011;35714;55.708;37.478;2023-04-28T09:40:50;10.02;;;5.63;;
49824;SDS011;35714;55.708;37.478;2023-04-28T09:43:24;8.88;;;5.45;;
49824;SDS011;35714;55.708;37.478;2023-04-28T09:45:50;7.13;;;5.00;;
49824;SDS011;35714;55.708;37.478;2023-04-28T09:48:16;9.10;;;5.03;;
49824;SDS011;35714;55.708;37.478;2023-04-28T09:50:43;7.18;;;5.53;;
49824;SDS011;35714;55.708;37.478;2023-04-28T09:53:09;10.90;;;5.80;;
49824;SDS011;35714;55.708;37.478;2023-04-28T09:55:38;8.70;;;5.20;;
49824;SDS011;35714;55.708;37.478;2023-04-28T09:58:08;8.13;;;5.75;;
49824;SDS011;35714;55.708;37.478;2023-04-28T10:00:35;8.65;;;5.38;;
49824;SDS011;35714;55.708;37.478;2023-04-28T10:03:04;10.35;;;6.20;;
49824;SDS011;35714;55.708;37.478;2023-04-28T10:05:33;10.50;;;5.00;;
49824;SDS011;35714;55.708;37.478;2023-04-28T10:08:00;10.10;;;6.22;;
49824;SDS011;35714;55.708;37.478;2023-04-28T10:10:27;10.65;;;5.97;;
49824;SDS011;35714;55.708;37.478;2023-04-28T10:12:53;9.52;;;6.18;;
49824;SDS011;35714;55.708;37.478;2023-04-28T10:15:19;10.45;;;5.32;;
49824;SDS011;35714;55.708;37.478;2023-04-28T10:17:47;10.30;;;4.95;;
49824;SDS011;35714;55.708;37.478;2023-04-28T10:20:15;10.52;;;5.95;;
49824;SDS011;35714;55.708;37.478;2023-04-28T10:25:30;11.20;;;7.25;;
49824;SDS011;35714;55.708;37.478;2023-04-28T10:27:58;13.13;;;8.07;;
49824;SDS011;35714;55.708;37.478;2023-04-28T10:30:25;13.20;;;8.68;;
49824;SDS011;35714;55.708;37.478;2023-04-28T10:35:40;12.60;;;7.93;;
49824;SDS011;35714;55.708;37.478;2023-04-28T10:38:13;11.52;;;8.43;;
49824;SDS011;35714;55.708;37.478;2023-04-28T10:40:47;15.30;;;8.85;;
49824;SDS011;35714;55.708;37.478;2023-04-28T10:43:32;13.38;;;9.05;;
49824;SDS011;35714;55.708;37.478;2023-04-28T10:45:59;12.50;;;8.50;;
49824;SDS011;35714;55.708;37.478;2023-04-28T10:56:11;13.43;;;10.10;;
49824;SDS011;35714;55.708;37.478;2023-04-28T10:58:40;11.95;;;9.80;;
49824;SDS011;35714;55.708;37.478;2023-04-28T11:06:23;13.13;;;10.77;;
49824;SDS011;35714;55.708;37.478;2023-04-28T11:08:53;14.55;;;11.50;;
49824;SDS011;35714;55.708;37.478;2023-04-28T11:11:22;14.82;;;11.25;;
49824;SDS011;35714;55.708;37.478;2023-04-28T11:13:53;18.75;;;12.60;;
49824;SDS011;35714;55.708;37.478;2023-04-28T11:16:21;15.13;;;11.07;;
49824;SDS011;35714;55.708;37.478;2023-04-28T11:18:56;16.42;;;11.15;;
49824;SDS011;35714;55.708;37.478;2023-04-28T11:21:24;14.48;;;11.13;;
49824;SDS011;35714;55.708;37.478;2023-04-28T11:23:52;14.98;;;10.52;;
49824;SDS011;35714;55.708;37.478;2023-04-28T11:26:18;13.65;;;9.95;;
49824;SDS011;35714;55.708;37.478;2023-04-28T11:28:51;15.02;;;10.05;;
49824;SDS011;35714;55.708;37.478;2023-04-28T11:31:18;14.27;;;9.68;;
49824;SDS011;35714;55.708;37.478;2023-04-28T11:33:54;13.02;;;9.13;;
49824;SDS011;35714;55.708;37.478;2023-04-28T11:38:54;13.35;;;9.90;;
49824;SDS011;35714;55.708;37.478;2023-04-28T11:41:21;12.48;;;9.38;;
49824;SDS011;35714;55.708;37.478;2023-04-28T11:43:47;14.27;;;9.27;;
49824;SDS011;35714;55.708;37.478;2023-04-28T11:46:17;11.73;;;8.30;;
49824;SDS011;35714;55.708;37.478;2023-04-28T11:48:44;10.00;;;7.85;;
49824;SDS011;35714;55.708;37.478;2023-04-28T11:51:26;12.10;;;8.43;;
49824;SDS011;35714;55.708;37.478;2023-04-28T11:53:59;10.57;;;7.97;;
49824;SDS011;35714;55.708;37.478;2023-04-28T11:56:27;11.02;;;8.63;;
49824;SDS011;35714;55.708;37.478;2023-04-28T11:59:03;15.23;;;10.95;;
49824;SDS011;35714;55.708;37.478;2023-04-28T12:01:32;13.73;;;11.20;;
49824;SDS011;35714;55.708;37.478;2023-04-28T12:03:58;11.85;;;8.55;;
49824;SDS011;35714;55.708;37.478;2023-04-28T12:06:24;11.57;;;8.32;;
49824;SDS011;35714;55.708;37.478;2023-04-28T12:08:50;11.70;;;7.82;;
49824;SDS011;35714;55.708;37.478;2023-04-28T12:11:16;13.43;;;8.40;;
49824;SDS011;35714;55.708;37.478;2023-04-28T12:13:42;9.88;;;7.75;;
49824;SDS011;35714;55.708;37.478;2023-04-28T12:16:08;10.38;;;7.85;;
49824;SDS011;35714;55.708;37.478;2023-04-28T12:18:34;9.25;;;6.57;;
49824;SDS011;35714;55.708;37.478;2023-04-28T12:21:00;7.80;;;6.25;;
49824;SDS011;35714;55.708;37.478;2023-04-28T12:23:30;7.35;;;6.13;;
49824;SDS011;35714;55.708;37.478;2023-04-28T12:26:00;7.18;;;5.20;;
49824;SDS011;35714;55.708;37.478;2023-04-28T12:28:39;7.65;;;5.45;;
49824;SDS011;35714;55.708;37.478;2023-04-28T12:31:06;9.60;;;5.13;;
49824;SDS011;35714;55.708;37.478;2023-04-28T12:33:33;7.00;;;5.22;;
49824;SDS011;35714;55.708;37.478;2023-04-28T12:36:02;7.72;;;5.25;;
49824;SDS011;35714;55.708;37.478;2023-04-28T12:38:30;7.85;;;5.22;;
49824;SDS011;35714;55.708;37.478;2023-04-28T12:40:56;6.65;;;5.05;;
49824;SDS011;35714;55.708;37.478;2023-04-28T12:43:23;7.90;;;5.50;;
49824;SDS011;35714;55.708;37.478;2023-04-28T12:45:51;7.72;;;5.88;;
49824;SDS011;35714;55.708;37.478;2023-04-28T12:48:19;7.18;;;5.03;;
49824;SDS011;35714;55.708;37.478;2023-04-28T12:50:46;7.35;;;5.47;;
49824;SDS011;35714;55.708;37.478;2023-04-28T12:53:12;7.50;;;5.35;;
49824;SDS011;35714;55.708;37.478;2023-04-28T12:55:37;7.55;;;4.82;;
49824;SDS011;35714;55.708;37.478;2023-04-28T12:58:04;6.45;;;4.97;;
49824;SDS011;35714;55.708;37.478;2023-04-28T13:00:30;6.40;;;4.72;;
49824;SDS011;35714;55.708;37.478;2023-04-28T13:02:56;7.60;;;4.95;;
49824;SDS011;35714;55.708;37.478;2023-04-28T13:05:22;9.80;;;4.60;;
49824;SDS011;35714;55.708;37.478;2023-04-28T13:07:48;7.15;;;3.45;;
49824;SDS011;35714;55.708;37.478;2023-04-28T13:10:15;5.50;;;3.63;;
49824;SDS011;35714;55.708;37.478;2023-04-28T13:12:42;6.80;;;3.53;;
49824;SDS011;35714;55.708;37.478;2023-04-28T13:15:08;6.35;;;3.38;;
49824;SDS011;35714;55.708;37.478;2023-04-28T13:17:34;5.00;;;2.72;;
49824;SDS011;35714;55.708;37.478;2023-04-28T13:20:00;5.80;;;3.50;;
49824;SDS011;35714;55.708;37.478;2023-04-28T13:22:31;9.60;;;3.22;;
49824;SDS011;35714;55.708;37.478;2023-04-28T13:24:57;5.28;;;2.85;;
49824;SDS011;35714;55.708;37.478;2023-04-28T13:27:23;18.95;;;3.40;;
49824;SDS011;35714;55.708;37.478;2023-04-28T13:29:50;6.93;;;3.15;;
49824;SDS011;35714;55.708;37.478;2023-04-28T13:32:16;7.45;;;3.10;;
49824;SDS011;35714;55.708;37.478;2023-04-28T13:34:41;4.78;;;2.53;;
49824;SDS011;35714;55.708;37.478;2023-04-28T13:37:07;5.18;;;2.70;;
49824;SDS011;35714;55.708;37.478;2023-04-28T13:39:32;6.10;;;2.90;;
49824;SDS011;35714;55.708;37.478;2023-04-28T13:41:58;6.20;;;3.40;;
49824;SDS011;35714;55.708;37.478;2023-04-28T13:44:25;6.13;;;3.03;;
49824;SDS011;35714;55.708;37.478;2023-04-28T13:46:51;5.43;;;3.03;;
49824;SDS011;35714;55.708;37.478;2023-04-28T13:49:17;6.15;;;2.67;;
49824;SDS011;35714;55.708;37.478;2023-04-28T13:51:44;5.90;;;3.15;;
49824;SDS011;35714;55.708;37.478;2023-04-28T13:54:09;5.07;;;2.70;;
49824;SDS011;35714;55.708;37.478;2023-04-28T13:56:36;5.57;;;3.13;;
49824;SDS011;35714;55.708;37.478;2023-04-28T13:59:02;5.57;;;2.63;;
49824;SDS011;35714;55.708;37.478;2023-04-28T14:01:28;5.85;;;2.33;;
49824;SDS011;35714;55.708;37.478;2023-04-28T14:03:53;5.47;;;2.17;;
49824;SDS011;35714;55.708;37.478;2023-04-28T14:06:19;4.65;;;2.30;;
49824;SDS011;35714;55.708;37.478;2023-04-28T14:08:46;4.47;;;2.20;;
49824;SDS011;35714;55.708;37.478;2023-04-28T14:11:12;4.35;;;2.13;;
49824;SDS011;35714;55.708;37.478;2023-04-28T14:13:37;3.97;;;2.13;;
49824;SDS011;35714;55.708;37.478;2023-04-28T14:16:03;6.35;;;3.08;;
49824;SDS011;35714;55.708;37.478;2023-04-28T14:18:29;7.10;;;2.45;;
49824;SDS011;35714;55.708;37.478;2023-04-28T14:20:56;5.93;;;2.40;;
49824;SDS011;35714;55.708;37.478;2023-04-28T14:23:22;5.35;;;2.53;;
49824;SDS011;35714;55.708;37.478;2023-04-28T14:25:48;5.38;;;2.28;;
49824;SDS011;35714;55.708;37.478;2023-04-28T14:28:14;6.97;;;1.80;;
49824;SDS011;35714;55.708;37.478;2023-04-28T14:30:40;4.43;;;1.80;;
49824;SDS011;35714;55.708;37.478;2023-04-28T14:33:06;4.57;;;2.00;;
49824;SDS011;35714;55.708;37.478;2023-04-28T14:35:32;5.70;;;1.90;;
49824;SDS011;35714;55.708;37.478;2023-04-28T14:37:58;6.55;;;3.65;;
49824;SDS011;35714;55.708;37.478;2023-04-28T14:40:24;5.30;;;2.08;;
49824;SDS011;35714;55.708;37.478;2023-04-28T14:42:51;4.75;;;1.60;;
49824;SDS011;35714;55.708;37.478;2023-04-28T14:45:17;3.83;;;1.38;;
49824;SDS011;35714;55.708;37.478;2023-04-28T14:47:44;5.00;;;1.60;;
49824;SDS011;35714;55.708;37.478;2023-04-28T14:50:10;3.75;;;1.30;;
49824;SDS011;35714;55.708;37.478;2023-04-28T14:52:36;4.50;;;1.52;;
49824;SDS011;35714;55.708;37.478;2023-04-28T14:55:02;2.80;;;1.05;;